sensor_id;sensor_type;location;lat;lon;timestamp;pressure;altitude;pressure_sealevel;temperature;humidity
74218;BME280;62579;47.288;18.646;2023-01-24T00:00:44;101253.16;;;6.14;88.87
74218;BME280;62579;47.288;18.646;2023-01-24T00:03:10;101254.56;;;6.19;88.65
74218;BME280;62579;47.288;18.646;2023-01-24T00:05:39;101242.66;;;6.03;88.96
74218;BME280;62579;47.288;18.646;2023-01-24T00:08:05;101243.97;;;6.12;88.53
74218;BME280;62579;47.288;18.646;2023-01-24T00:10:31;101244.19;;;6.17;88.65
74218;BME280;62579;47.288;18.646;2023-01-24T00:12:57;101247.97;;;6.20;88.39
74218;BME280;62579;47.288;18.646;2023-01-24T00:15:22;101250.69;;;6.20;88.06
74218;BME280;62579;47.288;18.646;2023-01-24T00:17:48;101244.19;;;6.17;88.45
74218;BME280;62579;47.288;18.646;2023-01-24T00:20:13;101248.97;;;6.13;88.62
74218;BME280;62579;47.288;18.646;2023-01-24T00:22:39;101250.78;;;6.16;88.67
74218;BME280;62579;47.288;18.646;2023-01-24T00:25:04;101255.78;;;6.18;88.35
74218;BME280;62579;47.288;18.646;2023-01-24T00:27:33;101250.69;;;6.20;88.16
74218;BME280;62579;47.288;18.646;2023-01-24T00:30:00;101252.44;;;6.26;87.72
74218;BME280;62579;47.288;18.646;2023-01-24T00:32:25;101252.97;;;6.21;87.66
74218;BME280;62579;47.288;18.646;2023-01-24T00:34:51;101252.84;;;6.25;87.87
74218;BME280;62579;47.288;18.646;2023-01-24T00:37:17;101254.91;;;6.21;87.88
74218;BME280;62579;47.288;18.646;2023-01-24T00:39:42;101260.94;;;6.25;87.74
74218;BME280;62579;47.288;18.646;2023-01-24T00:42:07;101262.91;;;6.24;87.78
74218;BME280;62579;47.288;18.646;2023-01-24T00:44:33;101262.91;;;6.24;87.96
74218;BME280;62579;47.288;18.646;2023-01-24T00:46:58;101261.06;;;6.21;87.91
74218;BME280;62579;47.288;18.646;2023-01-24T00:49:24;101263.34;;;6.23;88.01
74218;BME280;62579;47.288;18.646;2023-01-24T00:51:49;101263.34;;;6.23;87.91
74218;BME280;62579;47.288;18.646;2023-01-24T00:54:14;101276.84;;;6.23;87.81
74218;BME280;62579;47.288;18.646;2023-01-24T00:56:40;101270.13;;;6.02;87.67
74218;BME280;62579;47.288;18.646;2023-01-24T00:59:05;101269.47;;;6.11;87.45
74218;BME280;62579;47.288;18.646;2023-01-24T01:01:30;101265.59;;;5.99;87.96
74218;BME280;62579;47.288;18.646;2023-01-24T01:03:56;101259.09;;;6.09;87.74
74218;BME280;62579;47.288;18.646;2023-01-24T01:06:22;101268.06;;;6.19;86.37
74218;BME280;62579;47.288;18.646;2023-01-24T01:08:48;101264.28;;;5.91;88.21
74218;BME280;62579;47.288;18.646;2023-01-24T01:11:13;101268.50;;;6.04;87.14
74218;BME280;62579;47.288;18.646;2023-01-24T01:13:39;101275.75;;;6.08;87.39
74218;BME280;62579;47.288;18.646;2023-01-24T01:16:12;101276.19;;;6.06;87.39
74218;BME280;62579;47.288;18.646;2023-01-24T01:18:38;101272.06;;;6.01;87.60
74218;BME280;62579;47.288;18.646;2023-01-24T01:21:05;101276.50;;;6.08;87.72
74218;BME280;62579;47.288;18.646;2023-01-24T01:23:31;101283.75;;;6.11;87.83
74218;BME280;62579;47.288;18.646;2023-01-24T01:26:06;101281.03;;;6.11;87.50
74218;BME280;62579;47.288;18.646;2023-01-24T01:28:32;101285.50;;;6.05;87.56
74218;BME280;62579;47.288;18.646;2023-01-24T01:30:57;101282.66;;;5.96;87.69
74218;BME280;62579;47.288;18.646;2023-01-24T01:33:23;101278.78;;;5.97;87.91
74218;BME280;62579;47.288;18.646;2023-01-24T01:35:50;101283.94;;;5.91;87.69
74218;BME280;62579;47.288;18.646;2023-01-24T01:38:16;101295.94;;;5.90;88.26
74218;BME280;62579;47.288;18.646;2023-01-24T01:40:41;101298.41;;;5.97;88.22
74218;BME280;62579;47.288;18.646;2023-01-24T01:43:19;101293.25;;;6.03;88.18
74218;BME280;62579;47.288;18.646;2023-01-24T01:45:52;101285.50;;;6.05;88.22
74218;BME280;62579;47.288;18.646;2023-01-24T01:48:46;101288.94;;;6.05;88.21
74218;BME280;62579;47.288;18.646;2023-01-24T01:51:28;101289.69;;;6.06;88.23
74218;BME280;62579;47.288;18.646;2023-01-24T01:54:01;101297.78;;;6.06;88.21
74218;BME280;62579;47.288;18.646;2023-01-24T01:56:50;101301.91;;;6.11;88.11
74218;BME280;62579;47.288;18.646;2023-01-24T01:59:24;101294.47;;;6.02;87.50
74218;BME280;62579;47.288;18.646;2023-01-24T02:01:53;101297.72;;;5.81;88.29
74218;BME280;62579;47.288;18.646;2023-01-24T02:04:20;101297.81;;;5.77;88.30
74218;BME280;62579;47.288;18.646;2023-01-24T02:06:58;101305.69;;;5.72;88.84
74218;BME280;62579;47.288;18.646;2023-01-24T02:09:29;101303.31;;;5.74;88.83
74218;BME280;62579;47.288;18.646;2023-01-24T02:12:00;101308.91;;;5.95;87.50
74218;BME280;62579;47.288;18.646;2023-01-24T02:14:27;101295.94;;;5.90;87.29
74218;BME280;62579;47.288;18.646;2023-01-24T02:17:16;101305.38;;;5.82;87.78
74218;BME280;62579;47.288;18.646;2023-01-24T02:22:13;101306.69;;;5.78;87.95
74218;BME280;62579;47.288;18.646;2023-01-24T02:24:45;101297.47;;;5.46;89.57
74218;BME280;62579;47.288;18.646;2023-01-24T02:27:13;101313.91;;;5.52;89.50
74218;BME280;62579;47.288;18.646;2023-01-24T02:29:38;101316.25;;;5.66;88.74
74218;BME280;62579;47.288;18.646;2023-01-24T02:32:07;101320.12;;;5.65;88.86
74218;BME280;62579;47.288;18.646;2023-01-24T02:34:33;101321.22;;;5.68;88.71
74218;BME280;62579;47.288;18.646;2023-01-24T02:37:04;101321.56;;;5.70;88.52
74218;BME280;62579;47.288;18.646;2023-01-24T02:39:45;101311.84;;;5.72;88.56
74218;BME280;62579;47.288;18.646;2023-01-24T02:42:15;101313.62;;;5.63;88.56
74218;BME280;62579;47.288;18.646;2023-01-24T02:44:50;101325.97;;;5.64;89.32
74218;BME280;62579;47.288;18.646;2023-01-24T02:47:16;101313.22;;;5.64;89.08
74218;BME280;62579;47.288;18.646;2023-01-24T02:49:42;101311.59;;;5.67;88.40
74218;BME280;62579;47.288;18.646;2023-01-24T02:52:08;101312.38;;;5.67;88.56
74218;BME280;62579;47.288;18.646;2023-01-24T02:54:52;101314.53;;;5.72;88.39
74218;BME280;62579;47.288;18.646;2023-01-24T02:57:18;101314.47;;;6.30;98.39
74218;BME280;62579;47.288;18.646;2023-01-24T03:00:06;101314.31;;;5.95;89.65
74218;BME280;62579;47.288;18.646;2023-01-24T03:02:32;101316.88;;;5.86;89.34
74218;BME280;62579;47.288;18.646;2023-01-24T03:04:57;101321.97;;;5.68;88.63
74218;BME280;62579;47.288;18.646;2023-01-24T03:07:23;101330.31;;;5.74;88.21
74218;BME280;62579;47.288;18.646;2023-01-24T03:09:48;101336.81;;;5.76;87.89
74218;BME280;62579;47.288;18.646;2023-01-24T03:12:14;101328.37;;;5.74;87.78
74218;BME280;62579;47.288;18.646;2023-01-24T03:14:58;101330.28;;;5.61;88.28
74218;BME280;62579;47.288;18.646;2023-01-24T03:17:42;101339.84;;;5.33;88.88
74218;BME280;62579;47.288;18.646;2023-01-24T03:20:26;101334.38;;;5.37;88.75
74218;BME280;62579;47.288;18.646;2023-01-24T03:23:10;101339.06;;;5.33;89.05
74218;BME280;62579;47.288;18.646;2023-01-24T03:25:55;101339.19;;;5.29;89.63
74218;BME280;62579;47.288;18.646;2023-01-24T03:28:40;101343.13;;;5.25;89.07
74218;BME280;62579;47.288;18.646;2023-01-24T03:31:24;101347.69;;;5.12;89.85
74218;BME280;62579;47.288;18.646;2023-01-24T03:34:08;101348.19;;;5.07;90.47
74218;BME280;62579;47.288;18.646;2023-01-24T03:36:52;101344.22;;;5.11;90.24
74218;BME280;62579;47.288;18.646;2023-01-24T03:39:18;101347.19;;;5.17;89.57
74218;BME280;62579;47.288;18.646;2023-01-24T03:42:02;101344.66;;;4.94;90.62
74218;BME280;62579;47.288;18.646;2023-01-24T03:44:27;101349.03;;;5.04;90.42
74218;BME280;62579;47.288;18.646;2023-01-24T03:46:53;101349.63;;;5.11;90.08
74218;BME280;62579;47.288;18.646;2023-01-24T03:49:19;101354.03;;;5.05;90.43
74218;BME280;62579;47.288;18.646;2023-01-24T03:51:44;101354.63;;;5.13;90.48
74218;BME280;62579;47.288;18.646;2023-01-24T03:54:28;101351.59;;;5.11;90.09
74218;BME280;62579;47.288;18.646;2023-01-24T03:56:53;101342.63;;;5.14;89.68
74218;BME280;62579;47.288;18.646;2023-01-24T03:59:19;101345.19;;;5.05;89.99
74218;BME280;62579;47.288;18.646;2023-01-24T04:01:44;101338.81;;;4.79;90.83
74218;BME280;62579;47.288;18.646;2023-01-24T04:04:10;101344.06;;;4.86;91.08
74218;BME280;62579;47.288;18.646;2023-01-24T04:06:36;101338.69;;;5.02;90.15
74218;BME280;62579;47.288;18.646;2023-01-24T04:09:02;101349.03;;;5.04;90.43
74218;BME280;62579;47.288;18.646;2023-01-24T04:11:28;101347.03;;;5.08;90.28
74218;BME280;62579;47.288;18.646;2023-01-24T04:13:53;101348.47;;;5.12;89.49
74218;BME280;62579;47.288;18.646;2023-01-24T04:16:18;101346.94;;;5.11;89.66
74218;BME280;62579;47.288;18.646;2023-01-24T04:18:44;101352.31;;;5.11;90.21
74218;BME280;62579;47.288;18.646;2023-01-24T04:21:09;101339.25;;;4.94;90.14
74218;BME280;62579;47.288;18.646;2023-01-24T04:23:37;101346.09;;;5.14;89.55
74218;BME280;62579;47.288;18.646;2023-01-24T04:26:02;101350.81;;;5.10;89.03
74218;BME280;62579;47.288;18.646;2023-01-24T04:28:28;101354.44;;;5.04;89.70
74218;BME280;62579;47.288;18.646;2023-01-24T04:31:01;101351.66;;;5.07;89.87
74218;BME280;62579;47.288;18.646;2023-01-24T04:33:27;101353.78;;;5.16;88.80
74218;BME280;62579;47.288;18.646;2023-01-24T04:35:57;101357.41;;;5.09;89.42
74218;BME280;62579;47.288;18.646;2023-01-24T04:38:23;101349.81;;;5.04;89.60
74218;BME280;62579;47.288;18.646;2023-01-24T04:41:00;101358.91;;;4.94;90.13
74218;BME280;62579;47.288;18.646;2023-01-24T04:43:26;101356.72;;;4.89;90.49
74218;BME280;62579;47.288;18.646;2023-01-24T04:45:55;101354.19;;;4.98;89.40
74218;BME280;62579;47.288;18.646;2023-01-24T04:48:20;101351.75;;;5.20;88.34
74218;BME280;62579;47.288;18.646;2023-01-24T04:50:45;101358.09;;;5.13;88.77
74218;BME280;62579;47.288;18.646;2023-01-24T04:53:11;101355.37;;;5.13;88.55
74218;BME280;62579;47.288;18.646;2023-01-24T04:55:36;101362.22;;;5.18;88.55
74218;BME280;62579;47.288;18.646;2023-01-24T04:58:01;101362.22;;;5.18;88.60
74218;BME280;62579;47.288;18.646;2023-01-24T05:00:27;101360.78;;;5.29;88.00
74218;BME280;62579;47.288;18.646;2023-01-24T05:02:53;101366.06;;;5.33;87.95
74218;BME280;62579;47.288;18.646;2023-01-24T05:05:18;101368.03;;;5.32;87.86
74218;BME280;62579;47.288;18.646;2023-01-24T05:07:43;101370.72;;;5.32;87.81
74218;BME280;62579;47.288;18.646;2023-01-24T05:10:09;101372.75;;;5.28;87.98
74218;BME280;62579;47.288;18.646;2023-01-24T05:12:34;101367.59;;;5.02;88.22
74218;BME280;62579;47.288;18.646;2023-01-24T05:15:00;101362.87;;;5.22;87.71
74218;BME280;62579;47.288;18.646;2023-01-24T05:17:25;101374.94;;;5.17;88.03
74218;BME280;62579;47.288;18.646;2023-01-24T05:19:51;101371.41;;;5.20;88.30
74218;BME280;62579;47.288;18.646;2023-01-24T05:22:16;101382.78;;;5.28;88.13
74218;BME280;62579;47.288;18.646;2023-01-24T05:24:41;101381.59;;;5.29;87.96
74218;BME280;62579;47.288;18.646;2023-01-24T05:27:10;101384.97;;;5.17;88.91
74218;BME280;62579;47.288;18.646;2023-01-24T05:29:35;101388.09;;;5.15;89.04
74218;BME280;62579;47.288;18.646;2023-01-24T05:32:01;101385.13;;;5.10;89.13
74218;BME280;62579;47.288;18.646;2023-01-24T05:34:26;101385.91;;;5.10;88.76
74218;BME280;62579;47.288;18.646;2023-01-24T05:36:51;101383.97;;;5.11;88.57
74218;BME280;62579;47.288;18.646;2023-01-24T05:39:17;101383.22;;;5.10;88.45
74218;BME280;62579;47.288;18.646;2023-01-24T05:41:42;101387.34;;;5.15;88.31
74218;BME280;62579;47.288;18.646;2023-01-24T05:44:07;101390.09;;;5.11;88.08
74218;BME280;62579;47.288;18.646;2023-01-24T05:46:33;101386.66;;;5.11;88.49
74218;BME280;62579;47.288;18.646;2023-01-24T05:48:58;101394.25;;;5.16;88.16
74218;BME280;62579;47.288;18.646;2023-01-24T05:51:23;101389.78;;;5.09;88.48
74218;BME280;62579;47.288;18.646;2023-01-24T05:53:49;101393.16;;;5.13;88.54
74218;BME280;62579;47.288;18.646;2023-01-24T05:56:19;101393.56;;;5.12;88.97
74218;BME280;62579;47.288;18.646;2023-01-24T05:58:46;101397.47;;;5.11;88.63
74218;BME280;62579;47.288;18.646;2023-01-24T06:01:15;101392.31;;;5.16;88.43
74218;BME280;62579;47.288;18.646;2023-01-24T06:03:42;101400.50;;;5.13;88.22
74218;BME280;62579;47.288;18.646;2023-01-24T06:06:09;101397.78;;;5.13;87.99
74218;BME280;62579;47.288;18.646;2023-01-24T06:08:35;101405.56;;;5.11;87.84
74218;BME280;62579;47.288;18.646;2023-01-24T06:11:03;101411.69;;;5.11;87.94
74218;BME280;62579;47.288;18.646;2023-01-24T06:13:29;101404.88;;;5.07;87.67
74218;BME280;62579;47.288;18.646;2023-01-24T06:16:00;101414.25;;;5.18;86.97
74218;BME280;62579;47.288;18.646;2023-01-24T06:18:26;101414.13;;;5.06;87.12
74218;BME280;62579;47.288;18.646;2023-01-24T06:20:51;101411.66;;;4.95;87.45
74218;BME280;62579;47.288;18.646;2023-01-24T06:23:23;101416.72;;;4.93;87.42
74218;BME280;62579;47.288;18.646;2023-01-24T06:25:49;101415.22;;;4.92;88.10
74218;BME280;62579;47.288;18.646;2023-01-24T06:28:15;101419.75;;;4.95;88.09
74218;BME280;62579;47.288;18.646;2023-01-24T06:30:41;101416.22;;;4.98;87.92
74218;BME280;62579;47.288;18.646;2023-01-24T06:38:36;101426.87;;;5.05;86.62
74218;BME280;62579;47.288;18.646;2023-01-24T06:41:02;101428.81;;;5.05;86.61
74218;BME280;62579;47.288;18.646;2023-01-24T06:43:28;101434.53;;;5.07;85.84
74218;BME280;62579;47.288;18.646;2023-01-24T06:45:55;101429.91;;;5.07;85.58
74218;BME280;62579;47.288;18.646;2023-01-24T06:48:20;101429.91;;;5.07;85.21
74218;BME280;62579;47.288;18.646;2023-01-24T06:50:46;101437.44;;;5.16;84.60
74218;BME280;62579;47.288;18.646;2023-01-24T06:53:12;101431.78;;;5.10;85.71
74218;BME280;62579;47.288;18.646;2023-01-24T06:55:39;101432.81;;;5.16;85.56
74218;BME280;62579;47.288;18.646;2023-01-24T06:58:05;101437.44;;;5.16;85.57
74218;BME280;62579;47.288;18.646;2023-01-24T07:00:30;101435.34;;;5.23;85.32
74218;BME280;62579;47.288;18.646;2023-01-24T07:02:59;101442.59;;;5.26;85.44
74218;BME280;62579;47.288;18.646;2023-01-24T07:05:26;101442.28;;;5.40;83.74
74218;BME280;62579;47.288;18.646;2023-01-24T07:07:51;101440.16;;;5.48;83.30
74218;BME280;62579;47.288;18.646;2023-01-24T07:10:17;101444.09;;;5.60;82.40
74218;BME280;62579;47.288;18.646;2023-01-24T07:12:42;101443.37;;;5.43;83.16
74218;BME280;62579;47.288;18.646;2023-01-24T07:15:08;101449.03;;;5.49;82.78
74218;BME280;62579;47.288;18.646;2023-01-24T07:17:34;101448.50;;;5.54;82.36
74218;BME280;62579;47.288;18.646;2023-01-24T07:19:59;101452.97;;;5.44;83.03
74218;BME280;62579;47.288;18.646;2023-01-24T07:22:25;101453.16;;;5.37;83.30
74218;BME280;62579;47.288;18.646;2023-01-24T07:24:51;101451.47;;;5.59;82.51
74218;BME280;62579;47.288;18.646;2023-01-24T07:27:17;101463.38;;;5.62;82.71
74218;BME280;62579;47.288;18.646;2023-01-24T07:29:42;101463.25;;;5.65;82.52
74218;BME280;62579;47.288;18.646;2023-01-24T07:32:09;101462.09;;;5.66;82.82
74218;BME280;62579;47.288;18.646;2023-01-24T07:34:34;101471.63;;;5.71;83.16
74218;BME280;62579;47.288;18.646;2023-01-24T07:37:00;101473.91;;;5.72;82.93
74218;BME280;62579;47.288;18.646;2023-01-24T07:39:27;101479.97;;;5.76;82.57
74218;BME280;62579;47.288;18.646;2023-01-24T07:41:53;101481.50;;;5.77;81.45
74218;BME280;62579;47.288;18.646;2023-01-24T07:44:18;101490.25;;;5.65;81.00
74218;BME280;62579;47.288;18.646;2023-01-24T07:46:43;101483.00;;;5.78;80.79
74218;BME280;62579;47.288;18.646;2023-01-24T07:49:09;101490.69;;;5.64;81.33
74218;BME280;62579;47.288;18.646;2023-01-24T07:51:34;101484.78;;;5.53;80.27
74218;BME280;62579;47.288;18.646;2023-01-24T07:53:59;101488.50;;;5.42;80.61
74218;BME280;62579;47.288;18.646;2023-01-24T07:56:25;101495.59;;;5.53;79.63
74218;BME280;62579;47.288;18.646;2023-01-24T07:58:50;101500.66;;;5.51;80.42
74218;BME280;62579;47.288;18.646;2023-01-24T08:01:17;101503.25;;;5.54;80.22
74218;BME280;62579;47.288;18.646;2023-01-24T08:03:42;101504.13;;;5.51;80.60
74218;BME280;62579;47.288;18.646;2023-01-24T08:06:08;101503.78;;;5.65;80.07
74218;BME280;62579;47.288;18.646;2023-01-24T08:08:33;101506.22;;;5.76;79.76
74218;BME280;62579;47.288;18.646;2023-01-24T08:10:58;101521.19;;;5.64;80.16
74218;BME280;62579;47.288;18.646;2023-01-24T08:13:24;101517.03;;;5.76;79.70
74218;BME280;62579;47.288;18.646;2023-01-24T08:15:49;101514.69;;;5.78;80.07
74218;BME280;62579;47.288;18.646;2023-01-24T08:18:14;101514.34;;;5.92;78.59
74218;BME280;62579;47.288;18.646;2023-01-24T08:20:40;101517.12;;;5.72;78.06
74218;BME280;62579;47.288;18.646;2023-01-24T08:23:05;101516.78;;;5.86;78.62
74218;BME280;62579;47.288;18.646;2023-01-24T08:25:31;101518.13;;;5.78;77.82
74218;BME280;62579;47.288;18.646;2023-01-24T08:27:57;101521.31;;;5.73;77.75
74218;BME280;62579;47.288;18.646;2023-01-24T08:30:23;101526.16;;;5.82;78.02
74218;BME280;62579;47.288;18.646;2023-01-24T08:32:48;101526.59;;;5.80;77.60
74218;BME280;62579;47.288;18.646;2023-01-24T08:35:14;101529.63;;;5.82;78.56
74218;BME280;62579;47.288;18.646;2023-01-24T08:37:39;101533.91;;;5.80;77.26
74218;BME280;62579;47.288;18.646;2023-01-24T08:40:05;101525.37;;;5.81;77.18
74218;BME280;62579;47.288;18.646;2023-01-24T08:42:31;101537.03;;;5.78;77.72
74218;BME280;62579;47.288;18.646;2023-01-24T08:44:56;101528.72;;;5.89;77.55
74218;BME280;62579;47.288;18.646;2023-01-24T08:47:22;101540.97;;;5.93;77.58
74218;BME280;62579;47.288;18.646;2023-01-24T08:49:47;101533.25;;;5.92;78.45
74218;BME280;62579;47.288;18.646;2023-01-24T08:52:12;101533.00;;;6.02;77.63
74218;BME280;62579;47.288;18.646;2023-01-24T08:54:38;101529.94;;;6.17;77.40
74218;BME280;62579;47.288;18.646;2023-01-24T08:57:05;101526.66;;;6.25;77.19
74218;BME280;62579;47.288;18.646;2023-01-24T08:59:31;101537.78;;;6.27;76.49
74218;BME280;62579;47.288;18.646;2023-01-24T09:01:57;101541.59;;;6.30;76.13
74218;BME280;62579;47.288;18.646;2023-01-24T09:04:22;101531.94;;;6.45;74.03
74218;BME280;62579;47.288;18.646;2023-01-24T09:06:50;101534.63;;;6.45;74.10
74218;BME280;62579;47.288;18.646;2023-01-24T09:09:16;101535.72;;;6.47;74.29
74218;BME280;62579;47.288;18.646;2023-01-24T09:11:41;101537.59;;;6.50;74.05
74218;BME280;62579;47.288;18.646;2023-01-24T09:14:07;101538.59;;;6.40;74.34
74218;BME280;62579;47.288;18.646;2023-01-24T09:16:32;101534.97;;;6.47;73.48
74218;BME280;62579;47.288;18.646;2023-01-24T09:18:57;101538.00;;;6.49;73.41
74218;BME280;62579;47.288;18.646;2023-01-24T09:21:23;101535.84;;;6.56;74.14
74218;BME280;62579;47.288;18.646;2023-01-24T09:23:48;101535.13;;;6.56;72.36
74218;BME280;62579;47.288;18.646;2023-01-24T09:26:14;101531.44;;;6.62;73.78
74218;BME280;62579;47.288;18.646;2023-01-24T09:28:39;101524.97;;;6.73;73.73
74218;BME280;62579;47.288;18.646;2023-01-24T09:31:08;101537.56;;;6.79;73.35
74218;BME280;62579;47.288;18.646;2023-01-24T09:33:34;101529.91;;;6.78;72.42
74218;BME280;62579;47.288;18.646;2023-01-24T09:36:01;101529.25;;;6.86;72.47
74218;BME280;62579;47.288;18.646;2023-01-24T09:38:32;101528.16;;;6.84;72.28
74218;BME280;62579;47.288;18.646;2023-01-24T09:43:47;101525.13;;;6.82;72.87
74218;BME280;62579;47.288;18.646;2023-01-24T09:51:35;101509.88;;;6.88;73.32
74218;BME280;62579;47.288;18.646;2023-01-24T09:54:04;101515.94;;;6.92;73.30
74218;BME280;62579;47.288;18.646;2023-01-24T09:56:36;101514.53;;;6.87;73.34
74218;BME280;62579;47.288;18.646;2023-01-24T09:59:48;101512.28;;;6.98;73.49
74218;BME280;62579;47.288;18.646;2023-01-24T10:01:55;101512.94;;;7.02;73.55
74218;BME280;62579;47.288;18.646;2023-01-24T10:04:25;101510.81;;;7.10;73.24
74218;BME280;62579;47.288;18.646;2023-01-24T10:12:54;101489.00;;;7.13;74.67
74218;BME280;62579;47.288;18.646;2023-01-24T10:20:48;101480.81;;;7.42;75.78
74218;BME280;62579;47.288;18.646;2023-01-24T10:23:19;101484.69;;;7.54;76.28
74218;BME280;62579;47.288;18.646;2023-01-24T10:25:55;101483.69;;;7.48;75.19
74218;BME280;62579;47.288;18.646;2023-01-24T10:28:28;101489.00;;;7.51;75.91
74218;BME280;62579;47.288;18.646;2023-01-24T10:33:27;101491.37;;;7.74;74.96
74218;BME280;62579;47.288;18.646;2023-01-24T10:36:30;101494.84;;;7.62;75.39
74218;BME280;62579;47.288;18.646;2023-01-24T10:38:59;101490.72;;;7.70;75.67
74218;BME280;62579;47.288;18.646;2023-01-24T10:41:26;101488.22;;;7.76;75.21
74218;BME280;62579;47.288;18.646;2023-01-24T10:44:00;101483.69;;;7.73;76.15
74218;BME280;62579;47.288;18.646;2023-01-24T10:46:44;101488.53;;;7.78;75.64
74218;BME280;62579;47.288;18.646;2023-01-24T10:49:24;101484.31;;;7.90;75.97
74218;BME280;62579;47.288;18.646;2023-01-24T10:52:16;101481.78;;;7.95;74.77
74218;BME280;62579;47.288;18.646;2023-01-24T10:54:56;101464.97;;;8.00;74.48
74218;BME280;62579;47.288;18.646;2023-01-24T11:02:40;101451.75;;;8.24;74.56
74218;BME280;62579;47.288;18.646;2023-01-24T11:05:12;101447.53;;;8.23;73.54
74218;BME280;62579;47.288;18.646;2023-01-24T11:07:45;101455.47;;;8.17;74.44
74218;BME280;62579;47.288;18.646;2023-01-24T11:10:27;101446.28;;;8.36;73.48
74218;BME280;62579;47.288;18.646;2023-01-24T11:12:58;101447.31;;;8.30;73.39
74218;BME280;62579;47.288;18.646;2023-01-24T11:15:27;101446.25;;;8.27;75.25
74218;BME280;62579;47.288;18.646;2023-01-24T11:17:59;101440.06;;;8.27;74.42
74218;BME280;62579;47.288;18.646;2023-01-24T11:20:32;101440.25;;;8.32;74.68
74218;BME280;62579;47.288;18.646;2023-01-24T11:25:28;101431.22;;;8.35;74.44
74218;BME280;62579;47.288;18.646;2023-01-24T11:27:53;101433.47;;;8.37;74.27
74218;BME280;62579;47.288;18.646;2023-01-24T11:30:20;101419.81;;;8.40;73.64
74218;BME280;62579;47.288;18.646;2023-01-24T11:36:02;101411.03;;;8.36;74.67
74218;BME280;62579;47.288;18.646;2023-01-24T11:38:47;101414.75;;;8.30;76.16
74218;BME280;62579;47.288;18.646;2023-01-24T11:41:28;101412.25;;;8.35;76.17
74218;BME280;62579;47.288;18.646;2023-01-24T11:49:36;101407.03;;;8.50;75.20
74218;BME280;62579;47.288;18.646;2023-01-24T11:55:24;101406.09;;;8.66;73.02
74218;BME280;62579;47.288;18.646;2023-01-24T12:01:02;101403.63;;;8.59;73.83
74218;BME280;62579;47.288;18.646;2023-01-24T12:04:04;101393.53;;;8.59;75.38
74218;BME280;62579;47.288;18.646;2023-01-24T12:09:23;101390.34;;;8.61;75.67
74218;BME280;62579;47.288;18.646;2023-01-24T12:12:09;101386.16;;;8.60;75.95
74218;BME280;62579;47.288;18.646;2023-01-24T12:17:39;101388.09;;;8.59;76.17
74218;BME280;62579;47.288;18.646;2023-01-24T12:23:05;101375.25;;;8.51;75.00
74218;BME280;62579;47.288;18.646;2023-01-24T12:25:38;101381.78;;;8.62;73.50
74218;BME280;62579;47.288;18.646;2023-01-24T12:28:11;101390.34;;;8.61;72.48
74218;BME280;62579;47.288;18.646;2023-01-24T12:30:41;101379.06;;;8.62;73.39
74218;BME280;62579;47.288;18.646;2023-01-24T12:36:02;101386.34;;;8.74;73.37
74218;BME280;62579;47.288;18.646;2023-01-24T12:41:13;101386.69;;;8.76;73.12
74218;BME280;62579;47.288;18.646;2023-01-24T12:43:54;101384.56;;;8.80;73.62
74218;BME280;62579;47.288;18.646;2023-01-24T12:49:14;101383.63;;;8.65;74.23
74218;BME280;62579;47.288;18.646;2023-01-24T12:51:55;101382.09;;;8.64;73.33
74218;BME280;62579;47.288;18.646;2023-01-24T12:54:25;101382.56;;;8.63;71.82
74218;BME280;62579;47.288;18.646;2023-01-24T12:57:03;101378.59;;;8.55;72.61
74218;BME280;62579;47.288;18.646;2023-01-24T12:59:30;101380.09;;;8.56;73.44
74218;BME280;62579;47.288;18.646;2023-01-24T13:07:21;101390.44;;;8.48;75.72
74218;BME280;62579;47.288;18.646;2023-01-24T13:12:34;101382.28;;;8.39;76.51
74218;BME280;62579;47.288;18.646;2023-01-24T13:15:06;101384.34;;;8.35;77.55
74218;BME280;62579;47.288;18.646;2023-01-24T13:20:57;101389.16;;;8.31;77.55
74218;BME280;62579;47.288;18.646;2023-01-24T13:28:56;101385.13;;;8.35;80.12
74218;BME280;62579;47.288;18.646;2023-01-24T13:31:30;101407.13;;;8.37;79.94
74218;BME280;62579;47.288;18.646;2023-01-24T13:34:01;101395.00;;;8.29;79.42
74218;BME280;62579;47.288;18.646;2023-01-24T13:36:32;101395.31;;;8.31;79.01
74218;BME280;62579;47.288;18.646;2023-01-24T13:38:58;101396.69;;;8.14;80.06
74218;BME280;62579;47.288;18.646;2023-01-24T13:43:57;101384.41;;;8.01;78.38
74218;BME280;62579;47.288;18.646;2023-01-24T13:49:16;101398.91;;;8.07;78.41
74218;BME280;62579;47.288;18.646;2023-01-24T13:51:45;101390.94;;;8.12;78.07
74218;BME280;62579;47.288;18.646;2023-01-24T13:54:18;101391.59;;;8.16;76.87
74218;BME280;62579;47.288;18.646;2023-01-24T14:02:39;101390.88;;;8.03;76.38
74218;BME280;62579;47.288;18.646;2023-01-24T14:05:45;101390.63;;;8.10;76.65
74218;BME280;62579;47.288;18.646;2023-01-24T14:11:17;101402.09;;;7.93;77.14
74218;BME280;62579;47.288;18.646;2023-01-24T14:18:59;101398.75;;;7.88;78.70
74218;BME280;62579;47.288;18.646;2023-01-24T14:21:33;101407.34;;;7.87;79.75
74218;BME280;62579;47.288;18.646;2023-01-24T14:24:19;101405.03;;;7.85;79.20
74218;BME280;62579;47.288;18.646;2023-01-24T14:26:55;101399.41;;;7.93;79.77
74218;BME280;62579;47.288;18.646;2023-01-24T14:29:29;101408.12;;;7.75;80.69
74218;BME280;62579;47.288;18.646;2023-01-24T14:32:00;101403.03;;;7.77;79.67
74218;BME280;62579;47.288;18.646;2023-01-24T14:34:35;101402.38;;;7.73;79.62
74218;BME280;62579;47.288;18.646;2023-01-24T14:37:11;101408.72;;;7.57;81.21
74218;BME280;62579;47.288;18.646;2023-01-24T14:39:38;101413.63;;;7.50;81.84
74218;BME280;62579;47.288;18.646;2023-01-24T14:42:06;101406.66;;;7.49;81.50
74218;BME280;62579;47.288;18.646;2023-01-24T14:44:38;101411.00;;;7.46;81.38
74218;BME280;62579;47.288;18.646;2023-01-24T14:47:23;101407.25;;;7.31;81.96